Terminal Aerodrome Forecast
Issued by NWS

Current Version | Previous Version | Text Only | Print | Product List | Glossary Off
Versions: 1 2 3 4 5 6 7 8 9 10 11 12 13 14 15 16 17 18 19 20 21 22 23 24 25

000
FTUS41 KRNK 031129
TAFLWB
TAF
KLWB 031129Z 0312/0412 02003KT 6SM BR SCT001
      TEMPO 0312/0313 3SM BR BKN001
     FM031400 25006KT P6SM SCT050
     FM040000 VRB03KT P6SM SCT100 BKN250=

USA.gov is the U.S. government's official web portal to all federal, state and local government web resources and services.